createdAt,value
2023-01-10T00:00:55.355Z,95891.44
2023-01-10T00:03:52.142Z,95892.81
2023-01-10T00:06:48.904Z,95896.53
2023-01-10T00:09:45.667Z,95908.28
2023-01-10T00:13:01.020Z,95903.72
2023-01-10T00:15:57.881Z,95901.31
2023-01-10T00:18:54.683Z,95905.34
2023-01-10T00:21:51.433Z,95914.94
2023-01-10T00:24:48.230Z,95918.66
2023-01-10T00:27:45.952Z,95918.94
2023-01-10T00:30:42.717Z,95927.09
2023-01-10T00:33:39.578Z,95923.22
2023-01-10T00:36:36.393Z,95921.28
2023-01-10T00:39:33.138Z,95915.66
2023-01-10T00:42:48.273Z,95917.66
2023-01-10T00:45:48.391Z,95928.22
2023-01-10T00:48:45.226Z,95930.59
2023-01-10T00:51:42.849Z,95943.50
2023-01-10T00:54:39.591Z,95945.34
2023-01-10T00:57:36.393Z,95955.66
2023-01-10T01:00:33.152Z,95960.16
2023-01-10T01:03:29.875Z,95964.09
2023-01-10T01:06:26.812Z,95969.59
2023-01-10T01:09:23.547Z,95972.28
2023-01-10T01:12:20.300Z,95983.16
2023-01-10T01:15:17.110Z,95992.41
2023-01-10T01:18:15.941Z,96004.78
2023-01-10T01:21:12.703Z,96014.34
2023-01-10T01:24:10.680Z,96008.31
2023-01-10T01:27:07.429Z,96015.19
2023-01-10T01:30:06.117Z,96022.41
2023-01-10T01:33:02.849Z,96021.78
2023-01-10T01:35:59.877Z,96021.44
2023-01-10T01:38:56.681Z,96026.00
2023-01-10T01:42:00.238Z,96029.97
2023-01-10T01:45:12.483Z,96032.88
2023-01-10T01:48:21.988Z,96038.19
2023-01-10T01:51:22.091Z,96048.25
2023-01-10T01:54:19.267Z,96060.69
2023-01-10T01:57:20.998Z,96052.78
2023-01-10T02:00:17.977Z,96065.78
2023-01-10T02:03:15.173Z,96071.03
2023-01-10T02:06:12.046Z,96076.38
2023-01-10T02:09:21.086Z,96090.88
2023-01-10T02:12:19.014Z,96092.00
2023-01-10T02:15:16.301Z,96084.03
2023-01-10T02:18:13.593Z,96090.22
2023-01-10T02:21:31.269Z,96090.41
2023-01-10T02:24:39.234Z,96101.34
2023-01-10T02:28:05.998Z,96098.34
2023-01-10T02:31:34.609Z,96095.16
2023-01-10T02:34:38.442Z,96104.72
2023-01-10T02:37:46.503Z,96105.50
2023-01-10T02:40:59.843Z,96113.22
2023-01-10T02:44:02.943Z,96114.28
2023-01-10T02:47:02.545Z,96115.88
2023-01-10T02:50:19.223Z,96127.03
2023-01-10T02:53:23.185Z,96132.31
2023-01-10T02:56:50.969Z,96141.06
2023-01-10T03:00:24.619Z,96151.91
2023-01-10T03:03:51.157Z,96162.75
2023-01-10T03:07:11.463Z,96147.41
2023-01-10T03:10:19.088Z,96159.34
2023-01-10T03:13:28.639Z,96161.19
2023-01-10T03:16:29.237Z,96150.31
2023-01-10T03:19:31.292Z,96156.38
2023-01-10T03:22:30.589Z,96170.44
2023-01-10T03:25:32.623Z,96179.41
2023-01-10T03:28:34.071Z,96190.25
2023-01-10T03:31:35.925Z,96188.41
2023-01-10T03:34:33.259Z,96206.44
2023-01-10T03:38:06.361Z,96215.19
2023-01-10T03:41:13.153Z,96221.50
2023-01-10T03:44:31.617Z,96231.28
2023-01-10T03:47:46.508Z,96233.72
2023-01-10T03:50:43.617Z,96225.75
2023-01-10T03:53:40.403Z,96243.47
2023-01-10T03:56:44.878Z,96253.28
2023-01-10T03:59:41.637Z,96255.41
2023-01-10T04:02:39.061Z,96259.63
2023-01-10T04:05:35.975Z,96253.25
2023-01-10T04:08:32.783Z,96260.16
2023-01-10T04:11:29.646Z,96268.63
2023-01-10T04:14:27.646Z,96273.38
2023-01-10T04:17:24.387Z,96280.53
2023-01-10T04:20:21.275Z,96283.19
2023-01-10T04:23:18.074Z,96283.72
2023-01-10T04:26:14.837Z,96291.41
2023-01-10T04:29:11.594Z,96300.94
2023-01-10T04:32:08.355Z,96308.31
2023-01-10T04:35:05.351Z,96305.97
2023-01-10T04:38:02.117Z,96309.94
2023-01-10T04:40:58.946Z,96317.34
2023-01-10T04:43:55.712Z,96319.47
2023-01-10T04:46:52.462Z,96323.44
2023-01-10T04:49:49.218Z,96341.69
2023-01-10T04:52:45.951Z,96345.66
2023-01-10T04:55:42.971Z,96340.09
2023-01-10T04:58:39.724Z,96351.50
2023-01-10T05:01:39.110Z,96348.59
2023-01-10T05:04:36.009Z,96349.66
2023-01-10T05:07:32.799Z,96364.47
2023-01-10T05:10:29.645Z,96358.66
2023-01-10T05:13:26.519Z,96360.75
2023-01-10T05:16:24.082Z,96380.63
2023-01-10T05:19:20.856Z,96388.00
2023-01-10T05:22:18.012Z,96384.06
2023-01-10T05:25:14.989Z,96389.34
2023-01-10T05:28:11.747Z,96405.22
2023-01-10T05:31:10.206Z,96413.94
2023-01-10T05:34:07.086Z,96409.19
2023-01-10T05:37:03.847Z,96412.34
2023-01-10T05:40:00.604Z,96421.63
2023-01-10T05:42:57.360Z,96422.66
2023-01-10T05:45:54.240Z,96420.84
2023-01-10T05:48:52.826Z,96431.44
2023-01-10T05:51:49.601Z,96450.25
2023-01-10T05:54:46.380Z,96442.81
2023-01-10T05:57:43.145Z,96459.50
2023-01-10T06:00:40.342Z,96460.28
2023-01-10T06:03:37.498Z,96461.09
2023-01-10T06:06:34.431Z,96456.56
2023-01-10T06:09:31.198Z,96470.84
2023-01-10T06:12:27.974Z,96481.44
2023-01-10T06:15:24.725Z,96475.59
2023-01-10T06:18:21.494Z,96485.91
2023-01-10T06:21:18.443Z,96489.88
2023-01-10T06:24:15.225Z,96497.50
2023-01-10T06:27:12.003Z,96502.50
2023-01-10T06:30:10.394Z,96515.50
2023-01-10T06:33:08.768Z,96523.97
2023-01-10T06:36:05.767Z,96533.41
2023-01-10T06:39:02.514Z,96553.84
2023-01-10T06:41:59.277Z,96547.25
2023-01-10T06:44:56.013Z,96563.94
2023-01-10T06:47:52.795Z,96564.25
2023-01-10T06:50:49.972Z,96567.13
2023-01-10T06:53:46.722Z,96577.16
2023-01-10T06:56:43.496Z,96576.13
2023-01-10T06:59:40.236Z,96575.31
2023-01-10T07:02:37.336Z,96589.66
2023-01-10T07:05:34.090Z,96598.66
2023-01-10T07:08:30.844Z,96601.78
2023-01-10T07:11:27.608Z,96605.84
2023-01-10T07:14:24.595Z,96608.59
2023-01-10T07:17:21.439Z,96614.81
2023-01-10T07:20:18.955Z,96625.66
2023-01-10T07:23:15.754Z,96633.06
2023-01-10T07:26:17.511Z,96634.56
2023-01-10T07:29:14.286Z,96638.03
2023-01-10T07:32:11.048Z,96653.66
2023-01-10T07:35:08.107Z,96657.19
2023-01-10T07:38:04.889Z,96659.22
2023-01-10T07:41:03.348Z,96662.41
2023-01-10T07:44:00.158Z,96666.56
2023-01-10T07:46:56.918Z,96682.28
2023-01-10T07:49:53.665Z,96682.44
2023-01-10T07:52:50.427Z,96685.00
2023-01-10T07:55:47.251Z,96691.59
2023-01-10T07:58:46.247Z,96699.56
2023-01-10T08:01:43.121Z,96689.91
2023-01-10T08:04:39.878Z,96693.13
2023-01-10T08:07:36.983Z,96703.00
2023-01-10T08:10:35.223Z,96699.56
2023-01-10T08:13:32.376Z,96704.53
2023-01-10T08:16:29.199Z,96707.78
2023-01-10T08:19:25.962Z,96709.97
2023-01-10T08:22:22.720Z,96712.84
2023-01-10T08:25:19.480Z,96715.19
2023-01-10T08:28:16.262Z,96723.38
2023-01-10T08:31:13.236Z,96722.84
2023-01-10T08:34:10.018Z,96730.25
2023-01-10T08:37:06.790Z,96747.13
2023-01-10T08:40:03.825Z,96748.44
2023-01-10T08:43:02.326Z,96753.50
2023-01-10T08:45:59.097Z,96752.50
2023-01-10T08:48:56.093Z,96750.94
2023-01-10T08:51:52.847Z,96739.06
2023-01-10T08:54:50.254Z,96737.09
2023-01-10T08:57:47.002Z,96751.16
2023-01-10T09:00:45.055Z,96776.22
2023-01-10T09:03:41.877Z,96792.97
2023-01-10T09:06:38.655Z,96808.66
2023-01-10T09:09:36.705Z,96813.75
2023-01-10T09:12:52.346Z,96813.50
2023-01-10T09:15:52.084Z,96815.06
2023-01-10T09:18:48.846Z,96805.81
2023-01-10T09:21:45.603Z,96804.28
2023-01-10T09:24:43.975Z,96782.50
2023-01-10T09:27:40.726Z,96782.59
2023-01-10T09:30:37.490Z,96795.50
2023-01-10T09:33:45.626Z,96804.94
2023-01-10T09:36:43.309Z,96800.22
2023-01-10T09:39:40.066Z,96803.56
2023-01-10T09:42:47.808Z,96803.06
2023-01-10T09:46:05.552Z,96791.53
2023-01-10T09:49:24.805Z,96786.41
2023-01-10T09:52:50.830Z,96801.81
2023-01-10T09:55:53.131Z,96777.03
2023-01-10T09:58:50.089Z,96789.31
2023-01-10T10:01:48.754Z,96793.88
2023-01-10T10:04:56.642Z,96809.06
2023-01-10T10:08:02.592Z,96825.66
2023-01-10T10:11:31.213Z,96831.66
2023-01-10T10:14:33.724Z,96829.19
2023-01-10T10:18:09.087Z,96847.78
2023-01-10T10:21:31.094Z,96842.16
2023-01-10T10:24:37.454Z,96845.78
2023-01-10T10:27:50.705Z,96843.84
2023-01-10T10:30:50.071Z,96851.41
2023-01-10T10:34:13.391Z,96848.22
2023-01-10T10:37:17.596Z,96849.72
2023-01-10T10:40:14.497Z,96843.63
2023-01-10T10:43:18.352Z,96852.19
2023-01-10T10:46:19.087Z,96851.09
2023-01-10T10:49:24.560Z,96847.09
2023-01-10T10:52:26.946Z,96850.00
2023-01-10T10:55:31.039Z,96848.38
2023-01-10T10:58:30.809Z,96847.34
2023-01-10T11:01:27.841Z,96840.69
2023-01-10T11:04:24.705Z,96839.88
2023-01-10T11:07:22.424Z,96841.66
2023-01-10T11:10:36.978Z,96849.41
2023-01-10T11:13:33.630Z,96838.81
2023-01-10T11:16:39.938Z,96838.34
2023-01-10T11:19:36.730Z,96841.31
2023-01-10T11:22:40.011Z,96835.94
2023-01-10T11:25:36.858Z,96835.03
2023-01-10T11:28:34.268Z,96843.97
2023-01-10T11:31:32.267Z,96847.63
2023-01-10T11:34:31.767Z,96859.25
2023-01-10T11:37:34.025Z,96856.69
2023-01-10T11:40:32.647Z,96861.22
2023-01-10T11:43:34.462Z,96857.31
2023-01-10T11:46:31.256Z,96861.19
2023-01-10T11:49:37.900Z,96852.06
2023-01-10T11:52:34.710Z,96864.56
2023-01-10T11:55:33.410Z,96865.13
2023-01-10T11:58:35.049Z,96869.22
2023-01-10T12:01:45.809Z,96871.00
2023-01-10T12:04:46.952Z,96882.91
2023-01-10T12:08:06.230Z,96879.81
2023-01-10T12:11:21.936Z,96876.69
2023-01-10T12:14:20.381Z,96869.69
2023-01-10T12:17:27.640Z,96874.78
2023-01-10T12:20:25.787Z,96877.81
2023-01-10T12:23:24.196Z,96891.34
2023-01-10T12:26:21.572Z,96885.94
2023-01-10T12:29:25.655Z,96891.91
2023-01-10T12:32:30.701Z,96880.09
2023-01-10T12:35:46.257Z,96890.94
2023-01-10T12:39:06.185Z,96891.22
2023-01-10T12:42:32.408Z,96887.56
2023-01-10T12:45:35.093Z,96879.81
2023-01-10T12:48:40.696Z,96883.34
2023-01-10T12:51:38.225Z,96897.09
2023-01-10T12:54:34.987Z,96890.75
2023-01-10T12:57:36.909Z,96883.28
2023-01-10T13:00:47.771Z,96882.19
2023-01-10T13:03:49.301Z,96872.59
2023-01-10T13:06:46.278Z,96889.63
2023-01-10T13:09:43.807Z,96883.53
2023-01-10T13:12:43.014Z,96893.84
2023-01-10T13:15:48.147Z,96894.47
2023-01-10T13:19:05.602Z,96884.84
2023-01-10T13:22:22.811Z,96884.38
2023-01-10T13:25:25.600Z,96879.41
2023-01-10T13:28:31.447Z,96877.50
2023-01-10T13:31:32.939Z,96887.31
2023-01-10T13:34:35.422Z,96877.25
2023-01-10T13:37:36.999Z,96882.00
2023-01-10T13:40:34.054Z,96883.00
2023-01-10T13:43:34.574Z,96891.81
2023-01-10T13:46:31.505Z,96897.38
2023-01-10T13:49:42.866Z,96897.31
2023-01-10T13:52:39.711Z,96893.88
2023-01-10T13:55:39.328Z,96899.50
2023-01-10T13:58:59.319Z,96896.09
2023-01-10T14:02:17.193Z,96898.00
2023-01-10T14:05:18.422Z,96898.00
2023-01-10T14:08:16.053Z,96899.91
2023-01-10T14:11:13.374Z,96901.72
2023-01-10T14:14:34.258Z,96902.81
2023-01-10T14:17:32.910Z,96892.19
2023-01-10T14:20:31.648Z,96900.16
2023-01-10T14:23:32.159Z,96895.66
2023-01-10T14:26:31.723Z,96902.25
2023-01-10T14:29:31.702Z,96909.56
2023-01-10T14:32:38.212Z,96897.41
2023-01-10T14:35:42.525Z,96893.19
2023-01-10T14:38:39.672Z,96897.97
2023-01-10T14:41:42.347Z,96891.31
2023-01-10T14:44:45.850Z,96897.22
2023-01-10T14:47:42.655Z,96890.09
2023-01-10T14:50:39.505Z,96891.06
2023-01-10T14:53:36.270Z,96895.53
2023-01-10T14:56:44.780Z,96890.47
2023-01-10T14:59:41.548Z,96899.22
2023-01-10T15:02:43.599Z,96886.03
2023-01-10T15:05:47.633Z,96890.31
2023-01-10T15:08:44.802Z,96888.72
2023-01-10T15:11:41.672Z,96885.50
2023-01-10T15:14:38.491Z,96887.06
2023-01-10T15:17:36.919Z,96882.28
2023-01-10T15:20:33.894Z,96894.69
2023-01-10T15:23:39.111Z,96878.03
2023-01-10T15:26:35.881Z,96877.28
2023-01-10T15:29:33.738Z,96879.06
2023-01-10T15:32:34.512Z,96882.06
2023-01-10T15:35:36.621Z,96876.88
2023-01-10T15:38:37.307Z,96882.53
2023-01-10T15:41:34.778Z,96886.09
2023-01-10T15:44:35.801Z,96896.63
2023-01-10T15:47:52.917Z,96886.00
2023-01-10T15:51:11.028Z,96883.72
2023-01-10T15:54:19.796Z,96888.50
2023-01-10T15:57:20.827Z,96890.88
2023-01-10T16:00:18.952Z,96891.72
2023-01-10T16:03:34.222Z,96884.66
2023-01-10T16:06:34.003Z,96879.38
2023-01-10T16:09:31.289Z,96877.47
2023-01-10T16:12:53.400Z,96877.91
2023-01-10T16:15:50.598Z,96876.56
2023-01-10T16:18:47.400Z,96873.19
2023-01-10T16:21:46.545Z,96859.16
2023-01-10T16:24:44.247Z,96867.38
2023-01-10T16:27:41.269Z,96860.75
2023-01-10T16:30:42.757Z,96861.34
2023-01-10T16:33:41.063Z,96855.88
2023-01-10T16:36:38.047Z,96862.03
2023-01-10T16:39:35.011Z,96861.66
2023-01-10T16:42:50.225Z,96854.91
2023-01-10T16:45:52.256Z,96864.59
2023-01-10T16:48:50.097Z,96849.31
2023-01-10T16:51:46.848Z,96843.59
2023-01-10T16:54:43.612Z,96847.50
2023-01-10T16:57:44.252Z,96851.63
2023-01-10T17:00:42.484Z,96841.84
2023-01-10T17:03:39.306Z,96842.72
2023-01-10T17:06:36.103Z,96835.78
2023-01-10T17:09:32.881Z,96830.38
2023-01-10T17:12:32.944Z,96827.97
2023-01-10T17:15:29.747Z,96830.53
2023-01-10T17:18:28.604Z,96835.91
2023-01-10T17:21:25.424Z,96841.06
2023-01-10T17:24:22.792Z,96843.63
2023-01-10T17:27:19.543Z,96854.66
2023-01-10T17:30:16.596Z,96843.72
2023-01-10T17:33:13.599Z,96843.34
2023-01-10T17:36:10.748Z,96842.75
2023-01-10T17:39:07.569Z,96839.97
2023-01-10T17:42:06.051Z,96848.53
2023-01-10T17:45:03.711Z,96846.97
2023-01-10T17:48:00.840Z,96848.75
2023-01-10T17:50:59.671Z,96840.31
2023-01-10T17:53:56.651Z,96835.59
2023-01-10T17:56:53.546Z,96845.56
2023-01-10T17:59:50.332Z,96847.22
2023-01-10T18:02:47.239Z,96847.03
2023-01-10T18:05:55.563Z,96846.72
2023-01-10T18:08:53.519Z,96836.88
2023-01-10T18:11:50.341Z,96839.84
2023-01-10T18:14:47.122Z,96842.13
2023-01-10T18:17:45.200Z,96842.84
2023-01-10T18:20:44.048Z,96853.66
2023-01-10T18:23:40.930Z,96848.53
2023-01-10T18:26:37.703Z,96843.59
2023-01-10T18:29:34.562Z,96841.97
2023-01-10T18:32:32.438Z,96843.59
2023-01-10T18:35:30.431Z,96845.09
2023-01-10T18:38:30.889Z,96836.38
2023-01-10T18:41:27.657Z,96828.84
2023-01-10T18:44:24.524Z,96829.59
2023-01-10T18:47:21.379Z,96836.94
2023-01-10T18:50:18.246Z,96815.06
2023-01-10T18:53:15.006Z,96819.25
2023-01-10T18:56:11.957Z,96817.06
2023-01-10T18:59:08.731Z,96817.69
2023-01-10T19:02:06.243Z,96807.91
2023-01-10T19:05:04.723Z,96809.50
2023-01-10T19:08:01.740Z,96804.97
2023-01-10T19:11:12.414Z,96811.53
2023-01-10T19:14:09.466Z,96802.75
2023-01-10T19:17:06.296Z,96801.47
2023-01-10T19:20:03.190Z,96805.44
2023-01-10T19:22:59.949Z,96807.25
2023-01-10T19:25:57.594Z,96802.75
2023-01-10T19:28:54.415Z,96798.91
2023-01-10T19:31:52.558Z,96800.41
2023-01-10T19:34:50.100Z,96799.38
2023-01-10T19:37:49.377Z,96790.16
2023-01-10T19:40:52.379Z,96794.06
2023-01-10T19:43:53.680Z,96793.53
2023-01-10T19:46:50.448Z,96787.88
2023-01-10T19:49:47.219Z,96774.91
2023-01-10T19:52:46.338Z,96778.19
2023-01-10T19:55:43.085Z,96778.66
2023-01-10T19:58:39.857Z,96778.47
2023-01-10T20:01:36.667Z,96779.28
2023-01-10T20:04:33.459Z,96780.88
2023-01-10T20:07:30.222Z,96769.88
2023-01-10T20:10:26.970Z,96760.34
2023-01-10T20:13:24.030Z,96760.50
2023-01-10T20:16:22.511Z,96760.22
2023-01-10T20:19:21.390Z,96756.03
2023-01-10T20:22:18.151Z,96760.34
2023-01-10T20:25:14.952Z,96760.59
2023-01-10T20:28:11.736Z,96758.19
2023-01-10T20:31:10.156Z,96747.91
2023-01-10T20:34:06.936Z,96745.63
2023-01-10T20:37:04.123Z,96740.25
2023-01-10T20:40:01.498Z,96737.97
2023-01-10T20:42:58.638Z,96729.41
2023-01-10T20:45:55.553Z,96728.56
2023-01-10T20:48:53.534Z,96727.28
2023-01-10T20:51:50.368Z,96729.59
2023-01-10T20:54:47.154Z,96732.81
2023-01-10T20:57:43.925Z,96723.03
2023-01-10T21:00:40.694Z,96719.59
2023-01-10T21:03:37.463Z,96725.69
2023-01-10T21:06:35.348Z,96728.50
2023-01-10T21:09:32.206Z,96727.03
2023-01-10T21:12:30.821Z,96722.69
2023-01-10T21:15:27.577Z,96726.94
2023-01-10T21:18:26.860Z,96715.91
2023-01-10T21:21:23.695Z,96717.19
2023-01-10T21:24:22.901Z,96710.25
2023-01-10T21:27:19.741Z,96715.84
2023-01-10T21:30:19.008Z,96708.72
2023-01-10T21:33:15.825Z,96705.25
2023-01-10T21:36:13.734Z,96707.63
2023-01-10T21:39:10.574Z,96701.22
2023-01-10T21:42:27.261Z,96703.94
2023-01-10T21:45:23.993Z,96699.31
2023-01-10T21:48:20.758Z,96691.94
2023-01-10T21:51:17.503Z,96690.59
2023-01-10T21:54:14.323Z,96681.00
2023-01-10T21:57:11.073Z,96685.78
2023-01-10T22:00:08.552Z,96694.75
2023-01-10T22:03:05.324Z,96681.41
2023-01-10T22:06:02.106Z,96683.03
2023-01-10T22:08:58.867Z,96679.59
2023-01-10T22:11:55.731Z,96675.91
2023-01-10T22:14:52.543Z,96667.94
2023-01-10T22:17:49.318Z,96660.63
2023-01-10T22:20:46.065Z,96645.00
2023-01-10T22:23:43.576Z,96645.81
2023-01-10T22:26:40.344Z,96647.53
2023-01-10T22:29:37.117Z,96643.91
2023-01-10T22:32:33.903Z,96636.75
2023-01-10T22:35:30.660Z,96638.63
2023-01-10T22:38:29.108Z,96638.44
2023-01-10T22:41:26.784Z,96632.78
2023-01-10T22:44:26.497Z,96637.47
2023-01-10T22:47:23.317Z,96625.97
2023-01-10T22:50:20.076Z,96631.00
2023-01-10T22:53:17.031Z,96616.19
2023-01-10T22:56:13.807Z,96615.94
2023-01-10T22:59:11.374Z,96612.31
2023-01-10T23:02:08.142Z,96598.81
2023-01-10T23:05:05.175Z,96608.88
2023-01-10T23:08:01.979Z,96599.91
2023-01-10T23:10:58.892Z,96605.19
2023-01-10T23:13:55.683Z,96600.41
2023-01-10T23:16:52.457Z,96598.59
2023-01-10T23:19:49.234Z,96594.34
2023-01-10T23:22:45.990Z,96588.78
2023-01-10T23:25:43.104Z,96587.94
2023-01-10T23:28:46.861Z,96585.00
2023-01-10T23:31:43.689Z,96573.91
2023-01-10T23:34:40.471Z,96564.94
2023-01-10T23:37:37.246Z,96570.44
2023-01-10T23:40:33.990Z,96555.59
2023-01-10T23:43:30.797Z,96563.56
2023-01-10T23:46:27.556Z,96558.63
2023-01-10T23:49:24.341Z,96551.44
2023-01-10T23:52:21.097Z,96545.66
2023-01-10T23:55:17.850Z,96535.09
2023-01-10T23:58:15.604Z,96526.94
